Terminal Aerodrome Forecast
Issued by NWS Spokane, WA

Home | Current Version | Previous Version | Text Only | Print | Product List | Glossary On
Versions: 1 2 3 4 5 6 7 8 9 10 11 12 13 14
000
FTUS46 KOTX 252325
TAFGEG
TAF
KGEG 252325Z 2600/2624 VRB03KT P6SM FEW070 SCT250
     FM260300 16005KT P6SM FEW150 SCT200
     FM261200 17006KT P6SM BKN200
     FM261700 22010KT P6SM SCT100=

USA.gov is the U.S. government's official web portal to all federal, state and local government web resources and services.